sensor_id;sensor_type;location;lat;lon;timestamp;pressure;altitude;pressure_sealevel;temperature;humidity
5679;BME280;2862;52.560;13.566;2023-01-10T00:00:30;99798.66;;;6.87;94.60
5679;BME280;2862;52.560;13.566;2023-01-10T00:10:37;99817.16;;;6.89;94.45
5679;BME280;2862;52.560;13.566;2023-01-10T00:20:41;99832.75;;;6.82;94.97
5679;BME280;2862;52.560;13.566;2023-01-10T00:30:51;99836.13;;;6.84;96.18
5679;BME280;2862;52.560;13.566;2023-01-10T00:41:00;99844.00;;;6.75;98.74
5679;BME280;2862;52.560;13.566;2023-01-10T00:51:05;99854.13;;;6.81;98.67
5679;BME280;2862;52.560;13.566;2023-01-10T01:01:09;99861.63;;;6.76;97.98
5679;BME280;2862;52.560;13.566;2023-01-10T01:11:14;99884.69;;;6.75;97.53
5679;BME280;2862;52.560;13.566;2023-01-10T01:21:17;99910.81;;;6.59;98.29
5679;BME280;2862;52.560;13.566;2023-01-10T01:31:23;99937.34;;;6.59;97.95
5679;BME280;2862;52.560;13.566;2023-01-10T01:41:26;99971.41;;;6.65;98.06
5679;BME280;2862;52.560;13.566;2023-01-10T01:51:52;99980.13;;;6.78;97.54
5679;BME280;2862;52.560;13.566;2023-01-10T02:02:01;99995.44;;;6.86;96.89
5679;BME280;2862;52.560;13.566;2023-01-10T02:12:08;100008.00;;;6.95;97.25
5679;BME280;2862;52.560;13.566;2023-01-10T02:32:53;100026.81;;;6.70;97.34
5679;BME280;2862;52.560;13.566;2023-01-10T02:43:08;100036.00;;;6.54;97.97
5679;BME280;2862;52.560;13.566;2023-01-10T02:53:15;100046.69;;;6.30;98.83
5679;BME280;2862;52.560;13.566;2023-01-10T03:03:24;100052.88;;;6.42;98.95
5679;BME280;2862;52.560;13.566;2023-01-10T03:13:38;100092.09;;;6.38;99.50
5679;BME280;2862;52.560;13.566;2023-01-10T03:23:46;100109.75;;;6.51;98.61
5679;BME280;2862;52.560;13.566;2023-01-10T03:33:52;100132.56;;;6.53;99.09
5679;BME280;2862;52.560;13.566;2023-01-10T03:44:03;100143.59;;;6.60;99.46
5679;BME280;2862;52.560;13.566;2023-01-10T03:54:23;100164.09;;;6.58;99.99
5679;BME280;2862;52.560;13.566;2023-01-10T04:04:26;100174.72;;;6.58;100.00
5679;BME280;2862;52.560;13.566;2023-01-10T04:14:30;100213.53;;;6.48;100.00
5679;BME280;2862;52.560;13.566;2023-01-10T04:24:34;100237.09;;;6.52;100.00
5679;BME280;2862;52.560;13.566;2023-01-10T04:34:39;100262.94;;;6.50;100.00
5679;BME280;2862;52.560;13.566;2023-01-10T04:44:42;100277.75;;;6.65;100.00
5679;BME280;2862;52.560;13.566;2023-01-10T04:54:47;100296.69;;;6.61;100.00
5679;BME280;2862;52.560;13.566;2023-01-10T05:04:50;100324.09;;;6.61;100.00
5679;BME280;2862;52.560;13.566;2023-01-10T05:14:54;100339.78;;;6.64;100.00
5679;BME280;2862;52.560;13.566;2023-01-10T05:24:57;100352.22;;;6.64;100.00
5679;BME280;2862;52.560;13.566;2023-01-10T05:35:01;100373.31;;;6.54;100.00
5679;BME280;2862;52.560;13.566;2023-01-10T05:45:08;100399.53;;;6.59;100.00
5679;BME280;2862;52.560;13.566;2023-01-10T05:55:13;100418.97;;;6.59;100.00
5679;BME280;2862;52.560;13.566;2023-01-10T06:05:16;100430.63;;;6.70;100.00
5679;BME280;2862;52.560;13.566;2023-01-10T06:15:20;100448.38;;;6.69;100.00
5679;BME280;2862;52.560;13.566;2023-01-10T06:25:24;100471.34;;;6.70;100.00
5679;BME280;2862;52.560;13.566;2023-01-10T06:35:30;100495.47;;;6.67;100.00
5679;BME280;2862;52.560;13.566;2023-01-10T06:45:33;100498.56;;;6.61;100.00
5679;BME280;2862;52.560;13.566;2023-01-10T06:55:38;100526.19;;;6.71;100.00
5679;BME280;2862;52.560;13.566;2023-01-10T07:05:41;100542.13;;;7.57;100.00
5679;BME280;2862;52.560;13.566;2023-01-10T07:15:45;100559.16;;;8.14;93.92
5679;BME280;2862;52.560;13.566;2023-01-10T07:25:48;100574.84;;;7.47;97.45
5679;BME280;2862;52.560;13.566;2023-01-10T07:35:53;100602.69;;;7.17;99.45
5679;BME280;2862;52.560;13.566;2023-01-10T07:45:57;100628.50;;;7.15;99.22
5679;BME280;2862;52.560;13.566;2023-01-10T07:56:02;100650.31;;;7.20;99.49
5679;BME280;2862;52.560;13.566;2023-01-10T08:06:06;100660.28;;;7.42;97.12
5679;BME280;2862;52.560;13.566;2023-01-10T08:16:12;100672.31;;;7.22;97.26
5679;BME280;2862;52.560;13.566;2023-01-10T08:26:16;100693.19;;;7.15;97.30
5679;BME280;2862;52.560;13.566;2023-01-10T08:36:20;100698.28;;;7.31;96.47
5679;BME280;2862;52.560;13.566;2023-01-10T08:46:43;100718.94;;;7.40;96.62
5679;BME280;2862;52.560;13.566;2023-01-10T08:56:48;100718.81;;;7.42;95.55
5679;BME280;2862;52.560;13.566;2023-01-10T09:06:51;100738.16;;;7.57;95.34
5679;BME280;2862;52.560;13.566;2023-01-10T09:16:56;100742.19;;;7.75;94.11
5679;BME280;2862;52.560;13.566;2023-01-10T09:26:59;100761.66;;;7.88;93.68
5679;BME280;2862;52.560;13.566;2023-01-10T09:37:04;100760.06;;;7.86;92.42
5679;BME280;2862;52.560;13.566;2023-01-10T09:47:14;100773.66;;;7.94;92.01
5679;BME280;2862;52.560;13.566;2023-01-10T09:57:25;100796.38;;;7.87;92.27
5679;BME280;2862;52.560;13.566;2023-01-10T10:07:28;100791.22;;;8.09;91.31
5679;BME280;2862;52.560;13.566;2023-01-10T10:17:38;100801.47;;;7.90;92.09
5679;BME280;2862;52.560;13.566;2023-01-10T10:27:57;100798.59;;;8.30;89.47
5679;BME280;2862;52.560;13.566;2023-01-10T10:38:09;100815.19;;;7.96;91.89
5679;BME280;2862;52.560;13.566;2023-01-10T10:48:16;100824.84;;;8.23;91.11
5679;BME280;2862;52.560;13.566;2023-01-10T10:58:24;100824.56;;;8.15;90.14
5679;BME280;2862;52.560;13.566;2023-01-10T11:08:35;100841.25;;;8.17;88.62
5679;BME280;2862;52.560;13.566;2023-01-10T11:18:40;100852.88;;;8.16;89.11
5679;BME280;2862;52.560;13.566;2023-01-10T11:28:43;100839.13;;;8.22;88.33
5679;BME280;2862;52.560;13.566;2023-01-10T11:38:58;100851.88;;;8.42;86.14
5679;BME280;2862;52.560;13.566;2023-01-10T11:49:04;100851.16;;;8.28;86.48
5679;BME280;2862;52.560;13.566;2023-01-10T11:59:13;100867.50;;;8.60;85.29
5679;BME280;2862;52.560;13.566;2023-01-10T12:09:37;100878.75;;;8.76;82.71
5679;BME280;2862;52.560;13.566;2023-01-10T12:19:42;100866.25;;;8.76;81.21
5679;BME280;2862;52.560;13.566;2023-01-10T12:29:51;100870.81;;;8.87;81.41
5679;BME280;2862;52.560;13.566;2023-01-10T12:40:03;100871.72;;;8.75;81.68
5679;BME280;2862;52.560;13.566;2023-01-10T12:50:12;100886.59;;;8.54;82.44
5679;BME280;2862;52.560;13.566;2023-01-10T13:00:20;100898.03;;;8.43;82.08
5679;BME280;2862;52.560;13.566;2023-01-10T13:10:26;100905.69;;;8.35;81.68
5679;BME280;2862;52.560;13.566;2023-01-10T13:20:39;100923.19;;;8.39;83.20
5679;BME280;2862;52.560;13.566;2023-01-10T13:30:43;100942.91;;;8.49;82.93
5679;BME280;2862;52.560;13.566;2023-01-10T13:40:59;100934.38;;;8.44;81.96
5679;BME280;2862;52.560;13.566;2023-01-10T13:51:13;100948.94;;;8.25;81.98
5679;BME280;2862;52.560;13.566;2023-01-10T14:01:24;100944.06;;;8.19;82.38
5679;BME280;2862;52.560;13.566;2023-01-10T14:11:49;100954.72;;;8.07;83.07
5679;BME280;2862;52.560;13.566;2023-01-10T14:21:58;100957.50;;;8.05;83.79
5679;BME280;2862;52.560;13.566;2023-01-10T14:32:20;100953.44;;;7.87;83.44
5679;BME280;2862;52.560;13.566;2023-01-10T14:42:28;100957.13;;;7.71;85.06
5679;BME280;2862;52.560;13.566;2023-01-10T14:52:32;100953.47;;;7.47;86.44
5679;BME280;2862;52.560;13.566;2023-01-10T15:02:37;100969.69;;;7.30;86.91
5679;BME280;2862;52.560;13.566;2023-01-10T15:12:44;100964.66;;;7.25;87.49
5679;BME280;2862;52.560;13.566;2023-01-10T15:22:53;100960.47;;;7.48;89.58
5679;BME280;2862;52.560;13.566;2023-01-10T15:43:31;100972.72;;;6.97;87.58
5679;BME280;2862;52.560;13.566;2023-01-10T15:53:53;100989.78;;;7.07;88.00
5679;BME280;2862;52.560;13.566;2023-01-10T16:04:00;100989.44;;;7.26;88.17
5679;BME280;2862;52.560;13.566;2023-01-10T16:14:03;100985.88;;;7.12;87.00
5679;BME280;2862;52.560;13.566;2023-01-10T16:24:15;100985.31;;;7.07;87.32
5679;BME280;2862;52.560;13.566;2023-01-10T16:34:19;100976.09;;;7.13;86.53
5679;BME280;2862;52.560;13.566;2023-01-10T16:44:24;100969.47;;;7.06;87.18
5679;BME280;2862;52.560;13.566;2023-01-10T16:54:27;100979.44;;;7.02;87.09
5679;BME280;2862;52.560;13.566;2023-01-10T17:04:31;100982.41;;;6.98;87.89
5679;BME280;2862;52.560;13.566;2023-01-10T17:14:37;100968.91;;;7.01;88.01
5679;BME280;2862;52.560;13.566;2023-01-10T17:24:41;100975.38;;;6.82;88.55
5679;BME280;2862;52.560;13.566;2023-01-10T17:34:44;100978.16;;;6.81;88.55
5679;BME280;2862;52.560;13.566;2023-01-10T17:44:48;100987.56;;;6.72;89.09
5679;BME280;2862;52.560;13.566;2023-01-10T17:54:51;100981.13;;;6.48;89.99
5679;BME280;2862;52.560;13.566;2023-01-10T18:04:55;100976.28;;;6.40;90.66
5679;BME280;2862;52.560;13.566;2023-01-10T18:14:57;100973.16;;;6.33;90.77
5679;BME280;2862;52.560;13.566;2023-01-10T18:25:01;100967.00;;;6.33;90.88
5679;BME280;2862;52.560;13.566;2023-01-10T18:35:04;100969.09;;;6.28;91.30
5679;BME280;2862;52.560;13.566;2023-01-10T18:45:09;100957.50;;;6.15;91.85
5679;BME280;2862;52.560;13.566;2023-01-10T18:55:12;100960.34;;;6.11;91.92
5679;BME280;2862;52.560;13.566;2023-01-10T19:05:16;100953.81;;;6.03;92.11
5679;BME280;2862;52.560;13.566;2023-01-10T19:15:19;100949.06;;;5.78;93.32
5679;BME280;2862;52.560;13.566;2023-01-10T19:25:23;100934.56;;;5.69;93.81
5679;BME280;2862;52.560;13.566;2023-01-10T19:35:25;100934.63;;;5.68;93.27
5679;BME280;2862;52.560;13.566;2023-01-10T19:45:41;100916.75;;;5.71;97.79
5679;BME280;2862;52.560;13.566;2023-01-10T19:55:47;100905.59;;;5.50;93.19
5679;BME280;2862;52.560;13.566;2023-01-10T20:05:52;100897.84;;;5.47;93.89
5679;BME280;2862;52.560;13.566;2023-01-10T20:15:54;100888.25;;;5.30;94.03
5679;BME280;2862;52.560;13.566;2023-01-10T20:26:00;100888.22;;;5.16;94.35
5679;BME280;2862;52.560;13.566;2023-01-10T20:36:06;100891.28;;;4.93;95.69
5679;BME280;2862;52.560;13.566;2023-01-10T20:46:12;100879.50;;;4.98;96.00
5679;BME280;2862;52.560;13.566;2023-01-10T20:56:18;100872.28;;;4.70;96.60
5679;BME280;2862;52.560;13.566;2023-01-10T21:06:29;100867.00;;;4.55;96.27
5679;BME280;2862;52.560;13.566;2023-01-10T21:16:32;100861.44;;;4.43;96.36
5679;BME280;2862;52.560;13.566;2023-01-10T21:26:38;100851.72;;;4.44;96.01
5679;BME280;2862;52.560;13.566;2023-01-10T21:36:41;100843.00;;;4.42;95.16
5679;BME280;2862;52.560;13.566;2023-01-10T21:46:46;100832.56;;;4.39;94.96
5679;BME280;2862;52.560;13.566;2023-01-10T21:56:52;100818.41;;;4.40;94.60
5679;BME280;2862;52.560;13.566;2023-01-10T22:06:56;100814.13;;;4.37;94.06
5679;BME280;2862;52.560;13.566;2023-01-10T22:16:59;100793.63;;;4.41;93.09
5679;BME280;2862;52.560;13.566;2023-01-10T22:27:03;100796.03;;;4.30;92.90
5679;BME280;2862;52.560;13.566;2023-01-10T22:37:06;100778.53;;;4.27;92.52
5679;BME280;2862;52.560;13.566;2023-01-10T22:47:11;100755.31;;;4.32;91.66
5679;BME280;2862;52.560;13.566;2023-01-10T22:57:13;100745.31;;;4.37;91.07
5679;BME280;2862;52.560;13.566;2023-01-10T23:07:18;100744.59;;;4.49;89.96
5679;BME280;2862;52.560;13.566;2023-01-10T23:17:21;100726.06;;;4.49;89.55
5679;BME280;2862;52.560;13.566;2023-01-10T23:27:25;100718.38;;;4.45;89.45
5679;BME280;2862;52.560;13.566;2023-01-10T23:37:28;100700.97;;;4.41;89.28
5679;BME280;2862;52.560;13.566;2023-01-10T23:47:32;100675.88;;;4.48;88.41
5679;BME280;2862;52.560;13.566;2023-01-10T23:57:35;100668.41;;;4.55;88.36
